createdAt,value
2022-12-18T00:00:20.351Z,-2.10
2022-12-18T00:01:32.348Z,-2.10
2022-12-18T00:02:34.462Z,-2.10
2022-12-18T00:03:37.492Z,-2.10
2022-12-18T00:04:40.307Z,-2.10
2022-12-18T00:05:52.320Z,-2.10
2022-12-18T00:06:55.228Z,-2.10
2022-12-18T00:07:57.034Z,-2.10
2022-12-18T00:09:00.593Z,-2.10
2022-12-18T00:10:02.335Z,-2.10
2022-12-18T00:11:09.118Z,-2.10
2022-12-18T00:13:17.692Z,-2.20
2022-12-18T00:14:20.411Z,-2.10
2022-12-18T00:15:22.158Z,-2.20
2022-12-18T00:16:26.136Z,-2.20
2022-12-18T00:17:28.079Z,-2.20
2022-12-18T00:18:30.005Z,-2.20
2022-12-18T00:19:31.882Z,-2.20
2022-12-18T00:20:39.435Z,-2.20
2022-12-18T00:21:42.050Z,-2.20
2022-12-18T00:22:45.590Z,-2.20
2022-12-18T00:23:48.656Z,-2.20
2022-12-18T00:24:51.475Z,-2.20
2022-12-18T00:25:53.869Z,-2.20
2022-12-18T00:26:56.523Z,-2.20
2022-12-18T00:27:58.317Z,-2.20
2022-12-18T00:29:14.673Z,-2.30
2022-12-18T00:30:16.695Z,-2.30
2022-12-18T00:31:22.141Z,-2.20
2022-12-18T00:32:23.988Z,-2.30
2022-12-18T00:33:25.945Z,-2.30
2022-12-18T00:34:27.767Z,-2.30
2022-12-18T00:35:29.500Z,-2.30
2022-12-18T00:36:34.804Z,-2.30
2022-12-18T00:37:37.704Z,-2.30
2022-12-18T00:38:40.854Z,-2.30
2022-12-18T00:39:42.667Z,-2.30
2022-12-18T00:40:45.011Z,-2.30
2022-12-18T00:42:07.219Z,-2.30
2022-12-18T00:43:10.940Z,-2.30
2022-12-18T00:44:15.512Z,-2.30
2022-12-18T00:45:17.743Z,-2.30
2022-12-18T00:46:19.616Z,-2.30
2022-12-18T00:47:21.510Z,-2.30
2022-12-18T00:48:23.637Z,-2.30
2022-12-18T00:49:25.767Z,-2.30
2022-12-18T00:50:27.941Z,-2.30
2022-12-18T00:51:30.188Z,-2.30
2022-12-18T00:52:31.999Z,-2.40
2022-12-18T00:53:33.806Z,-2.30
2022-12-18T00:54:35.661Z,-2.30
2022-12-18T00:55:40.207Z,-2.30
2022-12-18T00:56:50.080Z,-2.30
2022-12-18T00:57:54.193Z,-2.30
2022-12-18T00:58:55.936Z,-2.30
2022-12-18T00:59:58.562Z,-2.30
2022-12-18T01:01:00.691Z,-2.30
2022-12-18T01:02:02.819Z,-2.20
2022-12-18T01:03:05.391Z,-2.20
2022-12-18T01:04:07.291Z,-2.20
2022-12-18T01:05:11.163Z,-2.20
2022-12-18T01:06:15.585Z,-2.20
2022-12-18T01:07:19.007Z,-2.20
2022-12-18T01:08:20.896Z,-2.20
2022-12-18T01:09:22.900Z,-2.20
2022-12-18T01:10:27.377Z,-2.20
2022-12-18T01:11:34.029Z,-2.30
2022-12-18T01:12:37.257Z,-2.20
2022-12-18T01:13:41.579Z,-2.20
2022-12-18T01:14:43.630Z,-2.30
2022-12-18T01:15:50.536Z,-2.30
2022-12-18T01:16:52.332Z,-2.30
2022-12-18T01:17:55.358Z,-2.30
2022-12-18T01:18:57.251Z,-2.40
2022-12-18T01:19:59.699Z,-2.40
2022-12-18T01:21:02.156Z,-2.40
2022-12-18T01:22:04.628Z,-2.40
2022-12-18T01:23:06.411Z,-2.40
2022-12-18T01:24:13.754Z,-2.50
2022-12-18T01:25:15.607Z,-2.50
2022-12-18T01:26:18.902Z,-2.50
2022-12-18T01:27:20.719Z,-2.50
2022-12-18T01:28:22.502Z,-2.50
2022-12-18T01:29:24.768Z,-2.50
2022-12-18T01:30:26.764Z,-2.50
2022-12-18T01:31:32.629Z,-2.50
2022-12-18T01:32:34.485Z,-2.50
2022-12-18T01:33:37.971Z,-2.50
2022-12-18T01:34:41.852Z,-2.40
2022-12-18T01:35:43.981Z,-2.50
2022-12-18T01:36:45.779Z,-2.50
2022-12-18T01:37:48.790Z,-2.50
2022-12-18T01:38:52.247Z,-2.50
2022-12-18T01:39:55.837Z,-2.50
2022-12-18T01:41:02.362Z,-2.50
2022-12-18T01:42:04.496Z,-2.50
2022-12-18T01:43:06.337Z,-2.50
2022-12-18T01:44:46.737Z,-2.50
2022-12-18T01:45:49.738Z,-2.50
2022-12-18T01:46:53.410Z,-2.50
2022-12-18T01:48:06.663Z,-2.50
2022-12-18T01:49:08.479Z,-2.50
2022-12-18T01:50:24.167Z,-2.50
2022-12-18T01:51:28.810Z,-2.60
2022-12-18T01:52:33.722Z,-2.60
2022-12-18T01:53:37.479Z,-2.60
2022-12-18T01:54:39.926Z,-2.60
2022-12-18T01:55:51.429Z,-2.60
2022-12-18T01:56:53.516Z,-2.70
2022-12-18T01:57:58.737Z,-2.70
2022-12-18T01:59:07.658Z,-2.70
2022-12-18T02:00:14.270Z,-2.70
2022-12-18T02:01:17.826Z,-2.80
2022-12-18T02:02:22.240Z,-2.80
2022-12-18T02:03:24.240Z,-2.80
2022-12-18T02:04:28.267Z,-2.80
2022-12-18T02:06:15.435Z,-2.80
2022-12-18T02:07:38.647Z,-2.90
2022-12-18T02:08:52.272Z,-2.90
2022-12-18T02:10:06.655Z,-2.90
2022-12-18T02:11:31.661Z,-3.00
2022-12-18T02:13:04.142Z,-3.00
2022-12-18T02:14:20.299Z,-3.00
2022-12-18T02:15:44.974Z,-3.00
2022-12-18T02:16:55.317Z,-3.00
2022-12-18T02:18:04.348Z,-3.00
2022-12-18T02:19:46.012Z,-3.10
2022-12-18T02:21:14.415Z,-3.10
2022-12-18T02:23:04.655Z,-3.10
2022-12-18T02:24:26.521Z,-3.10
2022-12-18T02:25:49.863Z,-3.10
2022-12-18T02:27:05.999Z,-3.10
2022-12-18T02:28:12.353Z,-3.10
2022-12-18T02:29:22.065Z,-3.10
2022-12-18T02:30:24.409Z,-3.20
2022-12-18T02:31:32.711Z,-3.20
2022-12-18T02:32:44.561Z,-3.10
2022-12-18T02:33:47.552Z,-3.20
2022-12-18T02:34:51.499Z,-3.20
2022-12-18T02:35:56.766Z,-3.20
2022-12-18T02:37:05.871Z,-3.20
2022-12-18T02:38:09.495Z,-3.30
2022-12-18T02:39:14.707Z,-3.20
2022-12-18T02:40:28.565Z,-3.30
2022-12-18T02:41:31.726Z,-3.30
2022-12-18T02:42:33.670Z,-3.30
2022-12-18T02:43:37.367Z,-3.30
2022-12-18T02:44:47.629Z,-3.30
2022-12-18T02:45:59.067Z,-3.30
2022-12-18T02:47:03.414Z,-3.30
2022-12-18T02:48:05.541Z,-3.30
2022-12-18T02:49:11.409Z,-3.40
2022-12-18T02:50:23.501Z,-3.40
2022-12-18T02:52:13.495Z,-3.40
2022-12-18T02:53:18.433Z,-3.40
2022-12-18T02:54:51.375Z,-3.40
2022-12-18T02:56:35.180Z,-3.40
2022-12-18T02:58:01.990Z,-3.40
2022-12-18T02:59:25.083Z,-3.40
2022-12-18T03:00:37.711Z,-3.40
2022-12-18T03:01:58.773Z,-3.40
2022-12-18T03:03:17.065Z,-3.40
2022-12-18T03:04:30.707Z,-3.40
2022-12-18T03:05:53.831Z,-3.40
2022-12-18T03:07:06.954Z,-3.40
2022-12-18T03:08:25.408Z,-3.50
2022-12-18T03:09:40.473Z,-3.50
2022-12-18T03:11:04.385Z,-3.50
2022-12-18T03:12:31.512Z,-3.50
2022-12-18T03:13:50.654Z,-3.50
2022-12-18T03:15:06.392Z,-3.50
2022-12-18T03:16:12.364Z,-3.50
2022-12-18T03:17:18.668Z,-3.50
2022-12-18T03:18:32.059Z,-3.50
2022-12-18T03:19:35.403Z,-3.50
2022-12-18T03:20:42.334Z,-3.50
2022-12-18T03:21:56.588Z,-3.50
2022-12-18T03:23:07.933Z,-3.50
2022-12-18T03:24:12.620Z,-3.50
2022-12-18T03:25:17.786Z,-3.50
2022-12-18T03:26:25.528Z,-3.50
2022-12-18T03:27:34.086Z,-3.50
2022-12-18T03:28:45.830Z,-3.50
2022-12-18T03:29:52.977Z,-3.50
2022-12-18T03:31:02.672Z,-3.50
2022-12-18T03:32:21.964Z,-3.50
2022-12-18T03:33:33.030Z,-3.50
2022-12-18T03:34:38.905Z,-3.50
2022-12-18T03:35:44.744Z,-3.50
2022-12-18T03:36:48.234Z,-3.50
2022-12-18T03:37:50.854Z,-3.50
2022-12-18T03:38:53.585Z,-3.50
2022-12-18T03:39:57.651Z,-3.50
2022-12-18T03:41:03.339Z,-3.50
2022-12-18T03:42:28.540Z,-3.60
2022-12-18T03:44:21.431Z,-3.60
2022-12-18T03:45:35.618Z,-3.60
2022-12-18T03:46:45.645Z,-3.60
2022-12-18T03:47:50.117Z,-3.60
2022-12-18T03:49:21.716Z,-3.60
2022-12-18T03:50:29.037Z,-3.60
2022-12-18T03:51:41.934Z,-3.70
2022-12-18T03:52:58.290Z,-3.70
2022-12-18T03:54:03.883Z,-3.70
2022-12-18T03:55:11.168Z,-3.70
2022-12-18T03:56:16.274Z,-3.70
2022-12-18T03:57:26.392Z,-3.70
2022-12-18T03:58:31.567Z,-3.70
2022-12-18T03:59:49.089Z,-3.70
2022-12-18T04:00:57.328Z,-3.70
2022-12-18T04:02:01.024Z,-3.70
2022-12-18T04:03:04.929Z,-3.70
2022-12-18T04:04:16.145Z,-3.70
2022-12-18T04:05:22.174Z,-3.80
2022-12-18T04:06:26.467Z,-3.70
2022-12-18T04:07:29.030Z,-3.80
2022-12-18T04:08:34.225Z,-3.80
2022-12-18T04:09:41.777Z,-3.80
2022-12-18T04:10:44.176Z,-3.80
2022-12-18T04:11:48.262Z,-3.80
2022-12-18T04:12:51.584Z,-3.80
2022-12-18T04:13:58.447Z,-3.80
2022-12-18T04:15:00.289Z,-3.80
2022-12-18T04:16:03.003Z,-3.80
2022-12-18T04:17:05.053Z,-3.90
2022-12-18T04:18:09.295Z,-3.90
2022-12-18T04:19:15.250Z,-3.90
2022-12-18T04:20:19.368Z,-3.90
2022-12-18T04:21:22.111Z,-3.90
2022-12-18T04:22:24.896Z,-3.90
2022-12-18T04:23:32.839Z,-3.90
2022-12-18T04:24:35.264Z,-3.90
2022-12-18T04:25:43.733Z,-3.90
2022-12-18T04:26:51.006Z,-3.90
2022-12-18T04:27:57.949Z,-3.90
2022-12-18T04:28:59.868Z,-3.90
2022-12-18T04:30:03.210Z,-3.90
2022-12-18T04:31:07.128Z,-3.90
2022-12-18T04:32:10.348Z,-3.90
2022-12-18T04:33:17.583Z,-3.90
2022-12-18T04:34:20.178Z,-3.90
2022-12-18T04:35:28.793Z,-3.90
2022-12-18T04:36:30.906Z,-3.90
2022-12-18T04:37:34.130Z,-3.90
2022-12-18T04:38:41.407Z,-3.90
2022-12-18T04:39:47.388Z,-3.90
2022-12-18T04:40:57.136Z,-3.90
2022-12-18T04:42:01.783Z,-3.90
2022-12-18T04:43:05.705Z,-3.90
2022-12-18T04:44:07.681Z,-4.00
2022-12-18T04:45:10.360Z,-4.00
2022-12-18T04:46:12.393Z,-3.90
2022-12-18T04:47:14.253Z,-3.90
2022-12-18T04:48:16.744Z,-3.90
2022-12-18T04:49:19.010Z,-4.00
2022-12-18T04:50:20.821Z,-4.00
2022-12-18T04:51:26.456Z,-4.00
2022-12-18T04:52:28.798Z,-3.90
2022-12-18T04:53:33.942Z,-4.00
2022-12-18T04:54:36.131Z,-4.00
2022-12-18T04:55:38.111Z,-4.00
2022-12-18T04:56:40.870Z,-4.00
2022-12-18T04:57:42.668Z,-4.00
2022-12-18T04:58:45.545Z,-4.00
2022-12-18T04:59:47.424Z,-4.00
2022-12-18T05:00:49.529Z,-4.00
2022-12-18T05:01:51.744Z,-4.00
2022-12-18T05:02:53.809Z,-4.00
2022-12-18T05:03:55.770Z,-4.00
2022-12-18T05:04:58.336Z,-4.00
2022-12-18T05:06:00.194Z,-4.00
2022-12-18T05:07:01.992Z,-4.00
2022-12-18T05:08:03.861Z,-4.00
2022-12-18T05:09:05.788Z,-4.00
2022-12-18T05:10:08.294Z,-4.00
2022-12-18T05:11:13.271Z,-4.00
2022-12-18T05:12:15.083Z,-4.00
2022-12-18T05:13:16.883Z,-4.00
2022-12-18T05:14:18.689Z,-4.00
2022-12-18T05:15:20.453Z,-4.00
2022-12-18T05:16:22.696Z,-4.00
2022-12-18T05:17:25.948Z,-4.00
2022-12-18T05:18:28.356Z,-4.00
2022-12-18T05:19:30.835Z,-4.00
2022-12-18T05:20:32.883Z,-4.00
2022-12-18T05:21:34.635Z,-4.00
2022-12-18T05:22:36.574Z,-4.00
2022-12-18T05:23:39.320Z,-4.00
2022-12-18T05:24:41.746Z,-4.00
2022-12-18T05:25:43.759Z,-4.00
2022-12-18T05:26:48.607Z,-4.00
2022-12-18T05:27:50.404Z,-4.00
2022-12-18T05:28:52.187Z,-4.00
2022-12-18T05:29:53.925Z,-4.00
2022-12-18T05:30:58.154Z,-4.00
2022-12-18T05:32:01.281Z,-4.00
2022-12-18T05:33:03.067Z,-4.00
2022-12-18T05:34:04.951Z,-4.00
2022-12-18T05:35:09.120Z,-4.00
2022-12-18T05:36:11.147Z,-4.00
2022-12-18T05:37:13.747Z,-4.00
2022-12-18T05:38:15.529Z,-4.00
2022-12-18T05:39:17.337Z,-4.00
2022-12-18T05:40:19.525Z,-4.00
2022-12-18T05:41:21.652Z,-4.00
2022-12-18T05:42:23.532Z,-4.00
2022-12-18T05:43:26.202Z,-4.00
2022-12-18T05:44:29.433Z,-4.00
2022-12-18T05:45:31.302Z,-4.00
2022-12-18T05:46:33.572Z,-4.00
2022-12-18T05:47:36.132Z,-4.00
2022-12-18T05:48:39.172Z,-4.00
2022-12-18T05:49:41.022Z,-4.00
2022-12-18T05:50:46.510Z,-4.00
2022-12-18T05:51:48.492Z,-4.00
2022-12-18T05:52:50.252Z,-4.00
2022-12-18T05:53:52.477Z,-4.00
2022-12-18T05:54:54.512Z,-4.00
2022-12-18T05:56:02.452Z,-4.00
2022-12-18T05:57:04.238Z,-4.10
2022-12-18T05:58:07.709Z,-4.00
2022-12-18T05:59:10.761Z,-4.10
2022-12-18T06:00:13.404Z,-4.00
2022-12-18T06:01:18.129Z,-4.00
2022-12-18T06:02:21.941Z,-4.00
2022-12-18T06:03:29.246Z,-4.10
2022-12-18T06:04:35.621Z,-4.10
2022-12-18T06:05:40.108Z,-4.10
2022-12-18T06:06:41.948Z,-4.10
2022-12-18T06:07:43.788Z,-4.10
2022-12-18T06:08:46.819Z,-4.10
2022-12-18T06:09:48.920Z,-4.10
2022-12-18T06:10:53.742Z,-4.10
2022-12-18T06:11:55.509Z,-4.10
2022-12-18T06:12:57.683Z,-4.10
2022-12-18T06:14:00.352Z,-4.10
2022-12-18T06:15:02.976Z,-4.10
2022-12-18T06:16:09.073Z,-4.10
2022-12-18T06:17:11.040Z,-4.10
2022-12-18T06:18:12.830Z,-4.10
2022-12-18T06:19:17.183Z,-4.10
2022-12-18T06:20:19.074Z,-4.10
2022-12-18T06:21:20.822Z,-4.10
2022-12-18T06:22:23.110Z,-4.10
2022-12-18T06:23:25.816Z,-4.10
2022-12-18T06:24:27.703Z,-4.10
2022-12-18T06:25:29.473Z,-4.10
2022-12-18T06:26:31.797Z,-4.10
2022-12-18T06:27:34.945Z,-4.20
2022-12-18T06:28:38.072Z,-4.10
2022-12-18T06:29:39.842Z,-4.10
2022-12-18T06:30:45.026Z,-4.20
2022-12-18T06:31:47.139Z,-4.20
2022-12-18T06:32:56.406Z,-4.20
2022-12-18T06:33:58.912Z,-4.20
2022-12-18T06:35:00.742Z,-4.20
2022-12-18T06:36:09.012Z,-4.10
2022-12-18T06:37:10.746Z,-4.10
2022-12-18T06:38:12.755Z,-4.20
2022-12-18T06:39:14.513Z,-4.10
2022-12-18T06:40:16.484Z,-4.20
2022-12-18T06:41:21.000Z,-4.10
2022-12-18T06:42:22.999Z,-4.10
2022-12-18T06:43:25.106Z,-4.20
2022-12-18T06:44:27.124Z,-4.20
2022-12-18T06:45:28.959Z,-4.10
2022-12-18T06:46:33.384Z,-4.20
2022-12-18T06:47:35.455Z,-4.10
2022-12-18T06:48:37.269Z,-4.20
2022-12-18T06:49:39.012Z,-4.20
2022-12-18T06:50:43.766Z,-4.20
2022-12-18T06:51:45.583Z,-4.10
2022-12-18T06:52:47.899Z,-4.20
2022-12-18T06:53:49.898Z,-4.20
2022-12-18T06:54:51.800Z,-4.20
2022-12-18T06:55:53.896Z,-4.10
2022-12-18T06:56:58.642Z,-4.20
2022-12-18T06:58:00.406Z,-4.20
2022-12-18T06:59:02.188Z,-4.20
2022-12-18T07:00:06.877Z,-4.10
2022-12-18T07:01:11.534Z,-4.20
2022-12-18T07:02:14.012Z,-4.20
2022-12-18T07:03:15.889Z,-4.20
2022-12-18T07:04:18.591Z,-4.20
2022-12-18T07:05:21.385Z,-4.20
2022-12-18T07:06:25.687Z,-4.20
2022-12-18T07:07:27.760Z,-4.20
2022-12-18T07:08:31.364Z,-4.20
2022-12-18T07:09:33.452Z,-4.20
2022-12-18T07:10:46.119Z,-4.20
2022-12-18T07:11:48.763Z,-4.20
2022-12-18T07:12:50.528Z,-4.20
2022-12-18T07:13:54.084Z,-4.20
2022-12-18T07:14:56.101Z,-4.20
2022-12-18T07:16:25.934Z,-4.20
2022-12-18T07:17:28.448Z,-4.20
2022-12-18T07:18:30.378Z,-4.20
2022-12-18T07:19:32.403Z,-4.20
2022-12-18T07:20:34.491Z,-4.20
2022-12-18T07:21:36.385Z,-4.20
2022-12-18T07:22:38.269Z,-4.20
2022-12-18T07:23:40.938Z,-4.20
2022-12-18T07:24:43.070Z,-4.20
2022-12-18T07:25:45.986Z,-4.20
2022-12-18T07:26:49.431Z,-4.20
2022-12-18T07:27:51.216Z,-4.20
2022-12-18T07:28:57.094Z,-4.20
2022-12-18T07:29:59.291Z,-4.20
2022-12-18T07:31:09.544Z,-4.10
2022-12-18T07:32:11.533Z,-4.10
2022-12-18T07:33:14.419Z,-4.10
2022-12-18T07:34:16.342Z,-4.10
2022-12-18T07:35:23.353Z,-4.10
2022-12-18T07:36:26.894Z,-4.10
2022-12-18T07:37:29.178Z,-4.10
2022-12-18T07:38:32.619Z,-4.10
2022-12-18T07:39:34.425Z,-4.10
2022-12-18T07:40:36.333Z,-4.10
2022-12-18T07:41:42.492Z,-4.10
2022-12-18T07:42:47.279Z,-4.10
2022-12-18T07:43:49.552Z,-4.10
2022-12-18T07:44:51.263Z,-4.10
2022-12-18T07:45:53.315Z,-4.10
2022-12-18T07:46:55.140Z,-4.10
2022-12-18T07:47:57.079Z,-4.00
2022-12-18T07:48:58.869Z,-4.10
2022-12-18T07:50:00.697Z,-4.10
2022-12-18T07:51:07.353Z,-4.10
2022-12-18T07:52:10.995Z,-4.00
2022-12-18T07:53:12.817Z,-4.00
2022-12-18T07:54:15.718Z,-4.00
2022-12-18T07:55:17.852Z,-4.00
2022-12-18T07:56:29.022Z,-4.00
2022-12-18T07:57:50.058Z,-4.00
2022-12-18T07:58:53.169Z,-4.00
2022-12-18T07:59:55.223Z,-4.00
2022-12-18T08:01:07.690Z,-3.90
2022-12-18T08:02:09.667Z,-3.90
2022-12-18T08:03:16.073Z,-3.90
2022-12-18T08:04:18.029Z,-3.90
2022-12-18T08:05:21.600Z,-3.90
2022-12-18T08:06:24.506Z,-3.80
2022-12-18T08:07:26.653Z,-3.80
2022-12-18T08:08:29.716Z,-3.80
2022-12-18T08:09:31.813Z,-3.80
2022-12-18T08:10:33.641Z,-3.80
2022-12-18T08:11:35.518Z,-3.80
2022-12-18T08:12:38.699Z,-3.80
2022-12-18T08:13:40.814Z,-3.80
2022-12-18T08:14:42.824Z,-3.70
2022-12-18T08:15:46.110Z,-3.70
2022-12-18T08:16:48.250Z,-3.70
2022-12-18T08:17:50.602Z,-3.70
2022-12-18T08:18:54.296Z,-3.70
2022-12-18T08:19:56.177Z,-3.60
2022-12-18T08:20:59.196Z,-3.60
2022-12-18T08:22:04.236Z,-3.60
2022-12-18T08:23:06.036Z,-3.50
2022-12-18T08:24:09.564Z,-3.60
2022-12-18T08:25:11.665Z,-3.50
2022-12-18T08:26:14.137Z,-3.50
2022-12-18T08:27:31.485Z,-3.50
2022-12-18T08:28:35.582Z,-3.40
2022-12-18T08:29:37.445Z,-3.40
2022-12-18T08:30:39.616Z,-3.30
2022-12-18T08:31:42.315Z,-3.30
2022-12-18T08:32:44.193Z,-3.30
2022-12-18T08:33:46.444Z,-3.30
2022-12-18T08:34:48.858Z,-3.20
2022-12-18T08:35:51.285Z,-3.20
2022-12-18T08:36:53.117Z,-3.20
2022-12-18T08:37:54.851Z,-3.20
2022-12-18T08:38:57.988Z,-3.20
2022-12-18T08:40:00.588Z,-3.10
2022-12-18T08:41:12.218Z,-3.10
2022-12-18T08:42:32.468Z,-3.10
2022-12-18T08:43:55.945Z,-3.10
2022-12-18T08:44:58.194Z,-3.10
2022-12-18T08:46:00.023Z,-3.00
2022-12-18T08:47:02.191Z,-3.00
2022-12-18T08:48:04.761Z,-3.00
2022-12-18T08:49:07.839Z,-3.00
2022-12-18T08:50:10.738Z,-3.00
2022-12-18T08:51:12.716Z,-3.00
2022-12-18T08:52:16.013Z,-2.90
2022-12-18T08:53:17.850Z,-2.90
2022-12-18T08:54:19.567Z,-2.90
2022-12-18T08:55:21.846Z,-2.90
2022-12-18T08:56:24.621Z,-2.90
2022-12-18T08:57:26.459Z,-2.90
2022-12-18T08:58:28.517Z,-2.80
2022-12-18T08:59:30.350Z,-2.80
2022-12-18T09:00:35.341Z,-2.80
2022-12-18T09:01:39.572Z,-2.80
2022-12-18T09:02:41.555Z,-2.80
2022-12-18T09:03:44.070Z,-2.80
2022-12-18T09:04:55.376Z,-2.70
2022-12-18T09:05:59.050Z,-2.70
2022-12-18T09:07:01.665Z,-2.70
2022-12-18T09:08:03.718Z,-2.70
2022-12-18T09:09:07.937Z,-2.60
2022-12-18T09:10:10.592Z,-2.60
2022-12-18T09:11:25.558Z,-2.60
2022-12-18T09:12:27.820Z,-2.60
2022-12-18T09:13:31.762Z,-2.50
2022-12-18T09:14:34.993Z,-2.50
2022-12-18T09:15:47.094Z,-2.50
2022-12-18T09:16:49.160Z,-2.50
2022-12-18T09:17:51.379Z,-2.50
2022-12-18T09:19:00.139Z,-2.40
2022-12-18T09:20:02.194Z,-2.40
2022-12-18T09:21:12.606Z,-2.40
2022-12-18T09:22:14.555Z,-2.40
2022-12-18T09:23:16.938Z,-2.30
2022-12-18T09:24:18.906Z,-2.30
2022-12-18T09:25:20.812Z,-2.30
2022-12-18T09:26:23.708Z,-2.30
2022-12-18T09:27:25.491Z,-2.20
2022-12-18T09:28:28.483Z,-2.20
2022-12-18T09:29:30.310Z,-2.20
2022-12-18T09:30:34.391Z,-2.20
2022-12-18T09:31:37.646Z,-2.10
2022-12-18T09:32:39.494Z,-2.10
2022-12-18T09:33:41.730Z,-2.10
2022-12-18T09:34:43.629Z,-2.10
2022-12-18T09:35:46.294Z,-2.10
2022-12-18T09:36:48.127Z,-2.10
2022-12-18T09:37:50.642Z,-2.00
2022-12-18T09:38:52.473Z,-2.00
2022-12-18T09:39:54.440Z,-2.00
2022-12-18T09:41:01.478Z,-1.90
2022-12-18T09:42:03.532Z,-1.90
2022-12-18T09:43:08.219Z,-1.90
2022-12-18T09:44:33.458Z,-1.90
2022-12-18T09:45:43.288Z,-1.90
2022-12-18T09:47:11.770Z,-1.80
2022-12-18T09:48:27.240Z,-1.80
2022-12-18T09:49:31.717Z,-1.80
2022-12-18T09:50:38.361Z,-1.80
2022-12-18T09:51:50.653Z,-1.80
2022-12-18T09:52:57.857Z,-1.70
2022-12-18T09:54:05.744Z,-1.70
2022-12-18T09:55:12.793Z,-1.70
2022-12-18T09:56:19.866Z,-1.70
2022-12-18T09:57:24.165Z,-1.70
2022-12-18T09:58:32.922Z,-1.60
2022-12-18T09:59:36.949Z,-1.60
2022-12-18T10:00:38.949Z,-1.60
2022-12-18T10:01:44.866Z,-1.50
2022-12-18T10:02:52.515Z,-1.60
2022-12-18T10:03:55.049Z,-1.50
2022-12-18T10:05:11.903Z,-1.50
2022-12-18T10:06:22.780Z,-1.50
2022-12-18T10:08:01.602Z,-1.40
2022-12-18T10:09:32.441Z,-1.40
2022-12-18T10:10:54.913Z,-1.40
2022-12-18T10:12:15.616Z,-1.30
2022-12-18T10:13:31.389Z,-1.30
2022-12-18T10:14:47.997Z,-1.30
2022-12-18T10:16:09.884Z,-1.30
2022-12-18T10:17:35.908Z,-1.30
2022-12-18T10:19:13.539Z,-1.20
2022-12-18T10:20:42.909Z,-1.20
2022-12-18T10:22:20.015Z,-1.20
2022-12-18T10:23:42.479Z,-1.20
2022-12-18T10:24:54.982Z,-1.10
2022-12-18T10:26:02.978Z,-1.10
2022-12-18T10:27:17.272Z,-1.10
2022-12-18T10:28:20.921Z,-1.10
2022-12-18T10:29:24.087Z,-1.10
2022-12-18T10:30:28.352Z,-1.10
2022-12-18T10:31:30.634Z,-1.00
2022-12-18T10:32:32.497Z,-1.00
2022-12-18T10:33:35.263Z,-1.00
2022-12-18T10:34:39.349Z,-1.00
2022-12-18T10:35:43.280Z,-1.00
2022-12-18T10:36:45.287Z,-1.00
2022-12-18T10:38:20.485Z,-1.00
2022-12-18T10:39:26.066Z,-0.90
2022-12-18T10:40:28.010Z,-0.90
2022-12-18T10:41:32.468Z,-0.90
2022-12-18T10:42:34.949Z,-0.90
2022-12-18T10:43:39.396Z,-0.90
2022-12-18T10:44:41.720Z,-0.80
2022-12-18T10:45:57.073Z,-0.80
2022-12-18T10:47:10.253Z,-0.80
2022-12-18T10:48:22.338Z,-0.80
2022-12-18T10:49:30.294Z,-0.80
2022-12-18T10:51:09.184Z,-0.70
2022-12-18T10:52:18.512Z,-0.70
2022-12-18T10:53:26.564Z,-0.70
2022-12-18T10:54:31.017Z,-0.70
2022-12-18T10:55:39.027Z,-0.70
2022-12-18T10:56:41.157Z,-0.60
2022-12-18T10:57:44.421Z,-0.60
2022-12-18T10:59:05.105Z,-0.60
2022-12-18T11:00:29.455Z,-0.60
2022-12-18T11:01:52.247Z,-0.60
2022-12-18T11:02:55.293Z,-0.60
2022-12-18T11:04:03.523Z,-0.60
2022-12-18T11:05:31.937Z,-0.60
2022-12-18T11:06:33.762Z,-0.50
2022-12-18T11:07:52.148Z,-0.50
2022-12-18T11:09:12.339Z,-0.50
2022-12-18T11:10:20.476Z,-0.50
2022-12-18T11:11:24.060Z,-0.40
2022-12-18T11:12:25.928Z,-0.40
2022-12-18T11:13:30.869Z,-0.40
2022-12-18T11:14:48.256Z,-0.40
2022-12-18T11:15:51.289Z,-0.40
2022-12-18T11:17:26.278Z,-0.40
2022-12-18T11:18:21.455Z,-0.30
2022-12-18T11:19:36.986Z,-0.30
2022-12-18T11:20:40.030Z,-0.30
2022-12-18T11:21:43.157Z,-0.30
2022-12-18T11:22:56.764Z,-0.30
2022-12-18T11:23:59.230Z,-0.20
2022-12-18T11:26:37.580Z,-0.20
2022-12-18T11:27:41.191Z,-0.20
2022-12-18T11:29:23.644Z,-0.20
2022-12-18T11:30:31.533Z,-0.20
2022-12-18T11:31:35.237Z,-0.10
2022-12-18T11:32:42.871Z,-0.10
2022-12-18T11:35:32.445Z,-0.10
2022-12-18T11:36:43.341Z,-0.10
2022-12-18T11:37:51.498Z,0.00
2022-12-18T11:38:56.617Z,0.00
2022-12-18T11:40:14.412Z,0.00
2022-12-18T11:42:09.441Z,0.00
2022-12-18T11:43:17.910Z,0.10
2022-12-18T11:44:27.576Z,0.10
2022-12-18T11:45:33.797Z,0.10
2022-12-18T11:46:56.252Z,0.10
2022-12-18T11:48:00.554Z,0.10
2022-12-18T11:49:14.048Z,0.10
2022-12-18T11:50:26.410Z,0.10
2022-12-18T11:51:39.647Z,0.10
2022-12-18T11:52:43.059Z,0.10
2022-12-18T11:53:44.785Z,0.10
2022-12-18T11:54:46.808Z,0.20
2022-12-18T11:56:17.586Z,0.20
2022-12-18T11:57:28.155Z,0.20
2022-12-18T11:58:45.841Z,0.20
2022-12-18T12:00:10.687Z,0.20
2022-12-18T12:01:37.641Z,0.20
2022-12-18T12:02:51.243Z,0.20
2022-12-18T12:04:10.745Z,0.20
2022-12-18T12:05:30.450Z,0.20
2022-12-18T12:06:58.654Z,0.20
2022-12-18T12:08:21.567Z,0.20
2022-12-18T12:09:54.677Z,0.20
2022-12-18T12:11:22.294Z,0.30
2022-12-18T12:12:49.005Z,0.30
2022-12-18T12:14:07.631Z,0.30
2022-12-18T12:15:37.647Z,0.30
2022-12-18T12:17:04.232Z,0.30
2022-12-18T12:18:42.747Z,0.30
2022-12-18T12:19:50.278Z,0.30
2022-12-18T12:21:05.636Z,0.30
2022-12-18T12:22:37.607Z,0.30
2022-12-18T12:23:54.091Z,0.30
2022-12-18T12:25:25.106Z,0.40
2022-12-18T12:26:36.694Z,0.40
2022-12-18T12:27:50.829Z,0.40
2022-12-18T12:29:05.256Z,0.40
2022-12-18T12:30:26.083Z,0.40
2022-12-18T12:31:54.089Z,0.40
2022-12-18T12:33:30.212Z,0.40
2022-12-18T12:34:48.570Z,0.40
2022-12-18T12:36:19.850Z,0.40
2022-12-18T12:37:45.071Z,0.40
2022-12-18T12:39:13.723Z,0.40
2022-12-18T12:40:50.101Z,0.40
2022-12-18T12:42:05.610Z,0.40
2022-12-18T12:43:50.222Z,0.40
2022-12-18T12:44:57.086Z,0.40
2022-12-18T12:46:15.276Z,0.50
2022-12-18T12:47:28.840Z,0.50
2022-12-18T12:48:34.600Z,0.50
2022-12-18T12:49:40.751Z,0.50
2022-12-18T12:50:47.880Z,0.50
2022-12-18T12:52:14.861Z,0.50
2022-12-18T12:53:27.129Z,0.50
2022-12-18T12:54:33.787Z,0.50
2022-12-18T12:55:36.180Z,0.50
2022-12-18T12:56:57.879Z,0.50
2022-12-18T12:58:35.901Z,0.60
2022-12-18T12:59:59.009Z,0.50
2022-12-18T13:01:23.268Z,0.60
2022-12-18T13:02:52.159Z,0.60
2022-12-18T13:04:24.823Z,0.60
2022-12-18T13:05:46.220Z,0.60
2022-12-18T13:06:59.621Z,0.60
2022-12-18T13:08:08.337Z,0.60
2022-12-18T13:09:10.850Z,0.60
2022-12-18T13:10:19.286Z,0.60
2022-12-18T13:11:59.988Z,0.60
2022-12-18T13:13:13.323Z,0.60
2022-12-18T13:14:29.187Z,0.60
2022-12-18T13:15:41.336Z,0.60
2022-12-18T13:16:43.233Z,0.60
2022-12-18T13:17:45.136Z,0.60
2022-12-18T13:18:55.839Z,0.70
2022-12-18T13:20:14.029Z,0.60
2022-12-18T13:21:26.522Z,0.60
2022-12-18T13:22:53.698Z,0.70
2022-12-18T13:23:57.096Z,0.70
2022-12-18T13:24:59.556Z,0.70
2022-12-18T13:26:07.362Z,0.60
2022-12-18T13:27:44.046Z,0.70
2022-12-18T13:28:48.495Z,0.70
2022-12-18T13:29:52.816Z,0.70
2022-12-18T13:30:57.954Z,0.70
2022-12-18T13:32:01.904Z,0.70
2022-12-18T13:33:15.715Z,0.70
2022-12-18T13:34:31.156Z,0.70
2022-12-18T13:35:40.844Z,0.70
2022-12-18T13:36:43.246Z,0.70
2022-12-18T13:37:54.256Z,0.70
2022-12-18T13:39:19.761Z,0.70
2022-12-18T13:40:56.427Z,0.70
2022-12-18T13:42:07.444Z,0.70
2022-12-18T13:43:21.432Z,0.70
2022-12-18T13:44:41.646Z,0.70
2022-12-18T13:45:48.625Z,0.70
2022-12-18T13:46:53.118Z,0.70
2022-12-18T13:47:55.443Z,0.70
2022-12-18T13:49:04.050Z,0.70
2022-12-18T13:50:36.598Z,0.70
2022-12-18T13:51:43.207Z,0.70
2022-12-18T13:52:45.702Z,0.70
2022-12-18T13:54:19.684Z,0.70
2022-12-18T13:55:23.202Z,0.70
2022-12-18T13:56:30.901Z,0.70
2022-12-18T13:57:41.745Z,0.70
2022-12-18T13:58:44.631Z,0.70
2022-12-18T13:59:48.376Z,0.70
2022-12-18T14:00:50.347Z,0.70
2022-12-18T14:02:00.069Z,0.70
2022-12-18T14:03:27.425Z,0.70
2022-12-18T14:04:34.522Z,0.70
2022-12-18T14:05:38.725Z,0.70
2022-12-18T14:06:46.732Z,0.70
2022-12-18T14:07:50.381Z,0.70
2022-12-18T14:08:54.160Z,0.70
2022-12-18T14:10:12.132Z,0.70
2022-12-18T14:11:25.392Z,0.70
2022-12-18T14:12:54.424Z,0.70
2022-12-18T14:13:57.816Z,0.70
2022-12-18T14:15:00.032Z,0.70
2022-12-18T14:16:04.361Z,0.70
2022-12-18T14:17:11.638Z,0.70
2022-12-18T14:18:35.072Z,0.70
2022-12-18T14:19:37.205Z,0.70
2022-12-18T14:20:46.588Z,0.70
2022-12-18T14:21:52.672Z,0.70
2022-12-18T14:22:55.836Z,0.70
2022-12-18T14:24:19.775Z,0.70
2022-12-18T14:25:29.676Z,0.70
2022-12-18T14:26:32.411Z,0.70
2022-12-18T14:27:39.193Z,0.70
2022-12-18T14:28:45.426Z,0.70
2022-12-18T14:29:47.339Z,0.70
2022-12-18T14:30:50.797Z,0.70
2022-12-18T14:32:17.555Z,0.70
2022-12-18T14:33:26.039Z,0.70
2022-12-18T14:34:28.001Z,0.70
2022-12-18T14:35:30.718Z,0.70
2022-12-18T14:36:32.607Z,0.70
2022-12-18T14:37:34.921Z,0.70
2022-12-18T14:38:39.028Z,0.80
2022-12-18T14:39:41.170Z,0.80
2022-12-18T14:40:44.028Z,0.80
2022-12-18T14:41:46.025Z,0.80
2022-12-18T14:42:48.024Z,0.70
2022-12-18T14:43:52.179Z,0.80
2022-12-18T14:45:14.620Z,0.80
2022-12-18T14:46:35.291Z,0.80